Tonder, Denmark
Current Conditions -  °F | °C
As of 3:20 AM on Friday 19 Dec 2014 (Local Time) from ETGG Reporting Station
Broken Clouds Broken Clouds  
Wind Chill: 50°   Ceiling: 600
Heat Index: 50°   Visibility: 6mi
Dew Point: 48°   Wind: 26mph
Humidity: 94%   Direction: 250°WSW
Pressure: 29.53"   Gusts: NA
Location:  54.93°N, 8.87°E
Report Text: ETGG 190220Z 25023KT 9999 BKN006 10/09 Q1000 YLO
Loading
Personal Weather Stations






























Interactive Weather Map New forecast layout! Learn more

10-Day Weather Forecast

Advertisements
Track Severe Weather on mobile